weather station
Area: 7197 km2
The highest point: Čupec (819 m.s.l.)
Total stations: 32
Stations online: 30
Stations offline: 2
Current weather
22°C

Meteorological map - weather stations in Jihomoravský

. The meteorological maps show weather information from WARIO weather stations

Weather stations Jihomoravský

 UpdatesNameStatusTemperatureHumidityWind speedWind direction
21.7.2024 21:50Adamov23.3 °C50.6 %3.8 m/s NE
21.7.2024 21:50Olešnice20.9 °C80.7 %0.0 m/s NW
21.7.2024 21:50Archlebov20.4 °C84.9 %2.0 m/s NE
21.7.2024 21:50Hustopeče21.5 °C62.7 %0.0 m/s E
21.7.2024 21:50Boskovice19.8 °C64.5 %1.0 m/s NW
21.7.2024 21:49Brno - Královo Pole22.8 °C63.8 %0.0 m/s NW
21.7.2024 21:50Brno-Líšeň22.4 °C66.0 %2.2 m/s NE
21.7.2024 21:50Brno - Řečkovice20.2 °C69.7 %0.9 m/s SE
21.7.2024 21:50Brno - Vinohrady25.0 °C50.3 %0.0 m/s SE
21.7.2024 21:50Brno-Kníničky18.9 °C87.9 %0.0 m/s E
21.7.2024 21:50Bzenec20.5 °C63.8 %0.0 m/s NE
21.7.2024 21:50Nížkovice17.6 °C79.5 %0.0 m/s SE
21.7.2024 21:49Lesní Hluboké 25.1 °C49.6 %0.0 m/s S
13.7.2024 16:28Brno - Lesná25.5 °C56.4 %1.4 m/s NW
21.7.2024 21:50Olešnice16.1 °C83.2 %0.6 m/s NE
21.7.2024 21:50Dolní Dubňany18.2 °C75.9 %0.0 m/s S
21.7.2024 21:50Brno - Jih24.1 °C57.8 %1.8 m/s NW
21.7.2024 21:50Mutěnice22.5 °C67.5 %1.5 m/s N
21.7.2024 21:50Blansko18.3 °C86.5 %0.0 m/s S
21.7.2024 21:24Pohořelice23.2 °C62.0 %1.2 m/s S
21.7.2024 21:50Pozořice23.3 °C52.7 %1.2 m/s NE
21.7.2024 21:50Veselí nad Moravou22.3 °C72.5 %0.0 m/s E
21.7.2024 21:50Brno - Přízřenice24.3 °C59.3 %0.9 m/s SE
21.7.2024 21:50Šlapanice21.4 °C77.1 %0.0 m/s N
21.7.2024 21:48Strážnice GUMEX23.6 °C66.4 %1.5 m/s NW
21.7.2024 21:50Němčičky19.4 °C69.4 %1.3 m/s N
21.7.2024 21:50Předklášteří18.0 °C76.5 %0.6 m/s SW
21.7.2024 21:49Veselí nad Moravou21.6 °C71.8 %0.0 m/s S
21.7.2024 21:47Kněževes Veselka21.6 °C57.5 %2.2 m/s SE
21.7.2024 21:49Lipov - Vinařství a penzion Kostelanský22.1 °C67.1 %0.6 m/s NW
21.7.2024 21:49Višňové28.9 °C35.9 %0.0 m/s W
21.7.2024 21:50Žarošice20.3 °C75.1 %0.6 m/s NW
Email notifications
Enter your email address to subscribe to notifications about news at warioweather.com. Your email address will not be used for any purpose other than sending these emails and will not be provided to any third party. The subscription can be ended at any time.
All data are only indicative. The portal administrator has no responsibility for potentially incorrect data and related consequences. Publishing or further sharing of content from www.warioweather.com is only allowed with written consent from WANET s.r.o.